Time;durP1;ratioP1;P1;durP2;ratioP2;P2;SDS_P1;SDS_P2;PMS_P1;PMS_P2;Temp;Humidity;BMP_temperature;BMP_pressure;BME280_temperature;BME280_humidity;BME280_pressure;Samples;Min_cycle;Max_cycle;Signal;HPM_P1;HPM_P2
2020/12/27 00:00:38;;;;;;;10.48;5.40;;;5.10;99.90;;;;;;5077656;28;20061;-81
2020/12/27 00:03:03;;;;;;;8.25;5.15;;;5.10;99.90;;;;;;5081526;28;20577;-81
2020/12/27 00:05:29;;;;;;;8.13;5.05;;;5.10;99.90;;;;;;5079435;28;20384;-79
2020/12/27 00:07:54;;;;;;;7.18;5.18;;;5.20;99.90;;;;;;5080354;28;20109;-79
2020/12/27 00:10:20;;;;;;;7.47;5.28;;;5.20;99.90;;;;;;5078004;28;20077;-79
2020/12/27 00:12:46;;;;;;;8.95;5.80;;;5.10;99.90;;;;;;5072948;28;20024;-79
2020/12/27 00:15:11;;;;;;;7.72;4.95;;;5.20;99.90;;;;;;5106799;28;20049;-81
2020/12/27 00:17:37;;;;;;;9.35;5.70;;;5.10;99.90;;;;;;5089890;28;20039;-81
2020/12/27 00:20:04;;;;;;;8.10;5.25;;;5.10;99.90;;;;;;5079922;28;20027;-81
2020/12/27 00:22:30;;;;;;;9.80;4.43;;;5.20;99.90;;;;;;5086357;28;20031;-81
2020/12/27 00:24:56;;;;;;;15.88;5.10;;;5.10;99.90;;;;;;5073963;28;20564;-79
2020/12/27 00:27:21;;;;;;;6.97;4.78;;;5.20;99.90;;;;;;5071533;28;20024;-79
2020/12/27 00:29:47;;;;;;;9.18;5.28;;;5.20;99.90;;;;;;5074188;28;20027;-80
2020/12/27 00:32:12;;;;;;;13.30;3.83;;;5.20;99.90;;;;;;5109456;28;20039;-81
2020/12/27 00:34:38;;;;;;;7.00;4.60;;;5.30;99.90;;;;;;5089426;28;20023;-79
2020/12/27 00:37:04;;;;;;;9.35;4.75;;;5.30;99.90;;;;;;5079153;28;20083;-79
2020/12/27 00:39:29;;;;;;;6.50;3.90;;;5.30;99.90;;;;;;5076336;28;20030;-79
2020/12/27 00:41:59;;;;;;;7.05;3.90;;;5.30;99.90;;;;;;5082583;28;20479;-81
2020/12/27 00:44:25;;;;;;;6.00;4.03;;;5.30;99.90;;;;;;5079969;28;20050;-82
2020/12/27 00:46:51;;;;;;;6.55;4.40;;;5.30;99.90;;;;;;5074957;28;20456;-81
2020/12/27 00:49:17;;;;;;;13.40;4.75;;;5.40;99.90;;;;;;5088402;28;20024;-81
2020/12/27 00:51:43;;;;;;;4.88;3.85;;;5.30;99.90;;;;;;5109270;28;20481;-79
2020/12/27 00:54:09;;;;;;;4.78;3.80;;;5.30;99.90;;;;;;5108869;28;20059;-79
2020/12/27 00:56:34;;;;;;;4.30;3.85;;;5.40;99.90;;;;;;5090779;28;20134;-81
2020/12/27 00:59:00;;;;;;;5.60;3.83;;;5.40;99.90;;;;;;5075718;28;20036;-81
2020/12/27 01:01:26;;;;;;;9.23;4.20;;;5.40;99.90;;;;;;5082279;28;20016;-81
2020/12/27 01:03:52;;;;;;;6.03;3.95;;;5.40;99.90;;;;;;5088139;28;20137;-81
2020/12/27 01:06:28;;;;;;;5.78;3.85;;;5.40;99.90;;;;;;5081844;28;20034;-79
2020/12/27 01:08:54;;;;;;;4.68;3.58;;;5.40;99.90;;;;;;5077964;28;20031;-80
2020/12/27 01:11:20;;;;;;;7.93;3.53;;;5.40;99.90;;;;;;5071504;28;20025;-79
2020/12/27 01:13:46;;;;;;;4.43;3.72;;;5.40;99.90;;;;;;5086360;28;20549;-79
2020/12/27 01:16:12;;;;;;;7.07;3.40;;;5.50;99.90;;;;;;5070979;28;20020;-81
2020/12/27 01:18:45;;;;;;;6.88;2.97;;;5.50;99.90;;;;;;5078864;28;20039;-81
2020/12/27 01:21:11;;;;;;;4.68;3.10;;;5.50;99.90;;;;;;5108214;28;20051;-79
2020/12/27 01:23:36;;;;;;;15.00;3.72;;;5.50;99.90;;;;;;5085471;28;20366;-79
2020/12/27 01:26:02;;;;;;;6.22;3.80;;;5.50;99.90;;;;;;5089075;28;20469;-80
2020/12/27 01:28:28;;;;;;;6.20;3.33;;;5.50;99.90;;;;;;5089486;28;20555;-79
2020/12/27 01:30:53;;;;;;;4.10;2.97;;;5.60;99.90;;;;;;5089578;28;20055;-81
2020/12/27 01:33:19;;;;;;;4.93;3.05;;;5.50;99.90;;;;;;5078599;28;20478;-81
2020/12/27 01:35:45;;;;;;;6.78;3.33;;;5.60;99.90;;;;;;5090654;28;20028;-81
2020/12/27 01:38:15;;;;;;;3.95;3.00;;;5.60;99.90;;;;;;5086311;28;20479;-81
2020/12/27 01:40:40;;;;;;;9.52;3.10;;;5.60;99.90;;;;;;5084133;28;20385;-81
2020/12/27 01:43:06;;;;;;;4.10;2.90;;;5.50;99.90;;;;;;5074835;28;20038;-81
2020/12/27 01:45:32;;;;;;;7.38;3.08;;;5.50;99.90;;;;;;5076277;28;20026;-81
2020/12/27 01:47:58;;;;;;;6.30;2.90;;;5.50;99.90;;;;;;5093418;28;20392;-81
2020/12/27 01:50:25;;;;;;;4.10;2.85;;;5.50;99.90;;;;;;5078650;28;20024;-80
2020/12/27 01:52:51;;;;;;;10.63;4.05;;;5.50;99.90;;;;;;5083683;28;20133;-81
2020/12/27 01:55:17;;;;;;;3.85;2.88;;;5.50;99.90;;;;;;5093675;28;20138;-81
2020/12/27 01:58:18;;;;;;;7.93;3.42;;;5.40;99.90;;;;;;5093472;28;20530;-81
2020/12/27 02:00:45;;;;;;;5.35;3.00;;;5.40;99.90;;;;;;5078748;28;20032;-82
2020/12/27 02:03:11;;;;;;;10.20;3.63;;;5.30;99.90;;;;;;5086909;28;20387;-81
2020/12/27 02:05:38;;;;;;;5.40;3.17;;;5.30;99.90;;;;;;5103570;28;20020;-80
2020/12/27 02:08:04;;;;;;;7.60;3.30;;;5.30;99.90;;;;;;5092013;28;20047;-79
2020/12/27 02:10:31;;;;;;;5.97;3.20;;;5.40;99.90;;;;;;5105247;28;20472;-81
2020/12/27 02:12:57;;;;;;;4.82;2.40;;;5.40;99.90;;;;;;5078100;28;20028;-81
2020/12/27 02:15:23;;;;;;;4.63;2.85;;;5.40;99.90;;;;;;5083939;28;20030;-81
2020/12/27 02:17:48;;;;;;;4.82;2.55;;;5.40;99.90;;;;;;5081772;28;20062;-81
2020/12/27 02:20:14;;;;;;;7.20;3.10;;;5.40;99.90;;;;;;5094074;28;20058;-81
2020/12/27 02:22:40;;;;;;;4.00;3.22;;;5.40;99.90;;;;;;5111957;28;20016;-81
2020/12/27 02:25:06;;;;;;;8.07;4.13;;;5.40;99.90;;;;;;5082540;28;20046;-81
2020/12/27 02:27:33;;;;;;;7.57;4.75;;;5.40;99.90;;;;;;5073974;28;20028;-81
2020/12/27 02:29:59;;;;;;;9.27;5.50;;;5.40;99.90;;;;;;5093511;28;20122;-79
2020/12/27 02:32:24;;;;;;;6.72;4.65;;;5.40;99.90;;;;;;5093177;28;20110;-79
2020/12/27 02:34:50;;;;;;;9.45;5.88;;;5.40;99.90;;;;;;5091791;28;20392;-81
2020/12/27 02:37:16;;;;;;;10.80;5.47;;;5.40;99.90;;;;;;5105344;28;20063;-81
2020/12/27 02:39:41;;;;;;;11.30;5.45;;;5.40;99.90;;;;;;5090089;28;20503;-81
2020/12/27 02:42:07;;;;;;;4.80;3.65;;;5.40;99.90;;;;;;5111663;28;20068;-81
2020/12/27 02:44:38;;;;;;;5.32;3.08;;;5.40;99.90;;;;;;5092204;28;20059;-81
2020/12/27 02:47:05;;;;;;;5.00;3.20;;;5.40;99.90;;;;;;5111503;28;20015;-81
2020/12/27 02:49:30;;;;;;;7.97;3.03;;;5.50;99.90;;;;;;5082087;28;20397;-81
2020/12/27 02:51:56;;;;;;;2.50;2.13;;;5.40;99.90;;;;;;5073417;28;20115;-82
2020/12/27 02:54:22;;;;;;;5.78;2.72;;;5.40;99.90;;;;;;5085147;28;20023;-81
2020/12/27 02:56:47;;;;;;;6.35;3.00;;;5.30;99.90;;;;;;5073817;28;20052;-81
2020/12/27 02:59:13;;;;;;;5.75;2.65;;;5.30;99.90;;;;;;5076787;28;20049;-81
2020/12/27 03:01:38;;;;;;;5.72;2.33;;;5.40;99.90;;;;;;5108263;28;20063;-81
2020/12/27 03:04:04;;;;;;;3.05;2.30;;;5.30;99.90;;;;;;5084861;28;20399;-81
2020/12/27 03:06:29;;;;;;;5.07;2.20;;;5.30;99.90;;;;;;5082999;28;20503;-81
2020/12/27 03:08:55;;;;;;;3.45;2.28;;;5.30;99.90;;;;;;5081741;28;20020;-81
2020/12/27 03:11:22;;;;;;;3.33;2.25;;;5.30;99.90;;;;;;5079058;28;20035;-79
2020/12/27 03:13:48;;;;;;;5.85;2.50;;;5.20;99.90;;;;;;5110607;28;20022;-79
2020/12/27 03:16:14;;;;;;;4.28;1.80;;;5.30;99.90;;;;;;5111501;28;20104;-81
2020/12/27 03:18:40;;;;;;;3.83;2.35;;;5.20;99.90;;;;;;5092055;28;20032;-81
2020/12/27 03:21:05;;;;;;;3.20;2.13;;;5.20;99.90;;;;;;5111527;28;20085;-80
2020/12/27 03:23:31;;;;;;;3.15;2.38;;;5.10;99.90;;;;;;5110623;28;20051;-81
2020/12/27 03:25:56;;;;;;;4.47;2.30;;;5.10;99.90;;;;;;5084815;28;20027;-81
2020/12/27 03:28:22;;;;;;;6.57;2.00;;;5.10;99.90;;;;;;5111164;28;20027;-81
2020/12/27 03:30:47;;;;;;;3.30;2.25;;;5.00;99.90;;;;;;5110254;28;20020;-83
2020/12/27 03:33:13;;;;;;;3.35;2.25;;;5.10;99.90;;;;;;5083658;28;20027;-82
2020/12/27 03:35:39;;;;;;;3.13;2.00;;;5.00;99.90;;;;;;5113248;28;20026;-82
2020/12/27 03:38:04;;;;;;;4.50;2.20;;;5.00;99.90;;;;;;5092285;28;20039;-81
2020/12/27 03:40:30;;;;;;;4.35;1.63;;;5.00;99.90;;;;;;5075889;28;20020;-82
2020/12/27 03:42:55;;;;;;;7.75;2.35;;;4.90;99.90;;;;;;5090627;28;20024;-83
2020/12/27 03:45:21;;;;;;;2.42;1.70;;;4.90;99.90;;;;;;5109909;28;20059;-81
2020/12/27 03:47:46;;;;;;;3.25;2.20;;;4.90;99.90;;;;;;5110739;28;20472;-82
2020/12/27 03:50:12;;;;;;;4.00;2.08;;;4.90;99.90;;;;;;5092235;28;20081;-83
2020/12/27 03:52:38;;;;;;;3.45;2.08;;;4.90;99.90;;;;;;5102577;28;20031;-82
2020/12/27 03:55:03;;;;;;;3.75;2.05;;;4.90;99.90;;;;;;5080618;28;20483;-82
2020/12/27 03:57:29;;;;;;;7.22;2.25;;;4.80;99.90;;;;;;5075122;28;20083;-82
2020/12/27 03:59:54;;;;;;;2.63;1.80;;;4.90;99.90;;;;;;5087633;28;20024;-82
2020/12/27 04:02:20;;;;;;;4.95;1.95;;;4.90;99.90;;;;;;5083800;28;20031;-82
2020/12/27 04:04:45;;;;;;;7.15;1.83;;;4.80;99.90;;;;;;5089777;28;20020;-82
2020/12/27 04:07:11;;;;;;;4.22;1.60;;;4.90;99.90;;;;;;5074955;28;20084;-82
2020/12/27 04:09:37;;;;;;;3.15;1.52;;;4.90;99.90;;;;;;5076204;28;20059;-82
2020/12/27 04:12:02;;;;;;;6.75;1.80;;;4.80;99.90;;;;;;5089700;28;20027;-81
2020/12/27 04:14:28;;;;;;;2.80;1.98;;;4.80;99.90;;;;;;5091969;28;20028;-80
2020/12/27 04:16:53;;;;;;;5.93;1.98;;;4.80;99.90;;;;;;5113933;28;20023;-82
2020/12/27 04:19:19;;;;;;;2.17;1.60;;;4.80;99.90;;;;;;5087062;28;20032;-82
2020/12/27 04:21:45;;;;;;;3.55;1.70;;;4.80;99.90;;;;;;5084254;28;20051;-80
2020/12/27 04:24:11;;;;;;;2.50;1.30;;;4.80;99.90;;;;;;5115893;28;20447;-80
2020/12/27 04:26:37;;;;;;;4.85;1.80;;;4.70;99.90;;;;;;5082861;28;20055;-80
2020/12/27 04:29:02;;;;;;;3.40;1.52;;;4.80;99.90;;;;;;5084736;28;20028;-80
2020/12/27 04:31:28;;;;;;;2.65;1.58;;;4.80;99.90;;;;;;5084942;28;20027;-82
2020/12/27 04:33:54;;;;;;;3.03;1.45;;;4.80;99.90;;;;;;5085444;28;20107;-82
2020/12/27 04:36:20;;;;;;;3.75;1.60;;;4.90;99.90;;;;;;5080761;28;20024;-80
2020/12/27 04:38:46;;;;;;;2.17;1.33;;;4.80;99.90;;;;;;5076713;28;20036;-80
2020/12/27 04:41:17;;;;;;;2.47;1.48;;;4.80;99.90;;;;;;5091083;28;20491;-82
2020/12/27 04:43:44;;;;;;;3.77;1.70;;;4.80;99.90;;;;;;5086653;28;20107;-82
2020/12/27 04:46:12;;;;;;;2.70;1.30;;;4.80;99.90;;;;;;5076166;28;20360;-82
2020/12/27 04:48:43;;;;;;;1.58;1.08;;;4.80;99.90;;;;;;5087590;28;20131;-81
2020/12/27 04:51:10;;;;;;;3.00;1.80;;;4.80;99.90;;;;;;5092062;28;20055;-80
2020/12/27 04:53:36;;;;;;;2.42;1.58;;;4.90;99.90;;;;;;5109784;28;20024;-80
2020/12/27 04:56:03;;;;;;;1.70;1.30;;;4.80;99.90;;;;;;5090913;28;20400;-81
2020/12/27 04:58:29;;;;;;;5.35;1.25;;;4.90;99.90;;;;;;5080734;28;20032;-81
2020/12/27 05:01:00;;;;;;;2.42;1.42;;;4.90;99.90;;;;;;5090747;28;20031;-82
2020/12/27 05:03:26;;;;;;;2.10;1.33;;;4.90;99.90;;;;;;5080151;28;20028;-82
2020/12/27 05:05:52;;;;;;;4.68;1.98;;;4.90;99.90;;;;;;5089580;28;20392;-82
2020/12/27 05:08:18;;;;;;;1.70;1.05;;;4.90;99.90;;;;;;5083129;28;20095;-82
2020/12/27 05:10:45;;;;;;;2.78;1.30;;;4.90;99.90;;;;;;5091852;28;20024;-80
2020/12/27 05:13:11;;;;;;;12.05;1.20;;;5.00;99.90;;;;;;5092531;28;20084;-80
2020/12/27 05:15:38;;;;;;;1.30;1.10;;;5.00;99.90;;;;;;5087322;28;20020;-82
2020/12/27 05:18:04;;;;;;;6.40;1.40;;;5.00;99.90;;;;;;5101761;28;20065;-82
2020/12/27 05:20:32;;;;;;;4.03;1.45;;;5.00;99.90;;;;;;5112151;28;20020;-82
2020/12/27 05:23:07;;;;;;;1.27;1.02;;;5.00;99.90;;;;;;5114192;28;20027;-82
2020/12/27 05:25:34;;;;;;;1.90;1.10;;;5.00;99.90;;;;;;5114384;28;20027;-82
2020/12/27 05:28:11;;;;;;;2.78;1.15;;;5.00;99.90;;;;;;5091887;28;20028;-82
2020/12/27 05:30:42;;;;;;;2.30;1.20;;;5.00;99.90;;;;;;5085103;28;20027;-82
2020/12/27 05:33:17;;;;;;;3.05;1.27;;;5.00;99.90;;;;;;5093722;28;20062;-82
2020/12/27 05:35:43;;;;;;;3.85;1.10;;;5.10;99.90;;;;;;5113718;28;20078;-82
2020/12/27 05:38:10;;;;;;;2.30;1.67;;;5.10;99.90;;;;;;5094267;28;20039;-83
2020/12/27 05:40:39;;;;;;;2.45;1.20;;;5.10;99.90;;;;;;5113157;28;20498;-82
2020/12/27 05:43:15;;;;;;;3.50;1.10;;;5.10;99.90;;;;;;5085816;28;20089;-82
2020/12/27 05:45:42;;;;;;;3.88;1.35;;;5.20;99.90;;;;;;5091188;28;20020;-80
2020/12/27 05:48:08;;;;;;;1.65;1.08;;;5.20;99.90;;;;;;5077281;28;20057;-80
2020/12/27 05:50:39;;;;;;;4.30;1.10;;;5.20;99.90;;;;;;5106638;28;20020;-83
2020/12/27 05:53:22;;;;;;;1.73;1.13;;;5.20;99.90;;;;;;5092392;28;20118;-82
2020/12/27 05:55:52;;;;;;;2.88;1.00;;;5.20;99.90;;;;;;5112829;28;20162;-82
2020/12/27 05:58:25;;;;;;;1.38;0.85;;;5.20;99.90;;;;;;5112148;28;20106;-82
2020/12/27 06:00:53;;;;;;;3.38;1.30;;;5.20;99.90;;;;;;5090026;28;20019;-82
2020/12/27 06:03:24;;;;;;;2.35;1.00;;;5.30;99.90;;;;;;5092908;28;20479;-82
2020/12/27 06:05:49;;;;;;;3.92;1.17;;;5.30;99.90;;;;;;5077983;28;20031;-80
2020/12/27 06:08:50;;;;;;;4.28;1.08;;;5.30;99.90;;;;;;5083946;28;20027;-80
2020/12/27 06:11:45;;;;;;;2.67;1.10;;;5.30;99.90;;;;;;4990658;28;20062;-80
2020/12/27 06:14:16;;;;;;;4.15;1.25;;;5.30;99.90;;;;;;4984545;28;20034;-81
2020/12/27 06:16:45;;;;;;;2.20;1.00;;;5.30;99.90;;;;;;4977942;28;20052;-80
2020/12/27 06:19:25;;;;;;;1.45;0.95;;;5.30;99.90;;;;;;4986092;28;20044;-81
2020/12/27 06:22:06;;;;;;;2.00;0.77;;;5.30;99.90;;;;;;5007196;28;20050;-80
2020/12/27 06:24:32;;;;;;;2.08;1.17;;;5.40;99.90;;;;;;5002499;28;20285;-82
2020/12/27 06:26:58;;;;;;;2.85;1.15;;;5.40;99.90;;;;;;4992384;28;20474;-82
2020/12/27 06:29:31;;;;;;;1.30;0.85;;;5.40;99.90;;;;;;4999087;28;20075;-82
2020/12/27 06:31:58;;;;;;;5.88;1.02;;;5.40;99.90;;;;;;4974380;28;20022;-80
2020/12/27 06:34:23;;;;;;;3.80;1.20;;;5.50;99.90;;;;;;4992766;28;20078;-80
2020/12/27 06:36:51;;;;;;;2.08;0.85;;;5.50;99.90;;;;;;5009168;28;20061;-82
2020/12/27 06:39:30;;;;;;;2.60;0.80;;;5.50;99.90;;;;;;4984018;28;20069;-82
2020/12/27 06:42:11;;;;;;;0.90;0.70;;;5.40;99.90;;;;;;4974380;28;20499;-82
2020/12/27 06:44:46;;;;;;;2.05;0.90;;;5.50;99.90;;;;;;4980503;28;20062;-82
2020/12/27 06:47:14;;;;;;;6.63;1.05;;;5.40;99.90;;;;;;5006939;28;20131;-83
2020/12/27 06:49:40;;;;;;;3.60;1.10;;;5.40;99.90;;;;;;5108532;28;20095;-83
2020/12/27 06:52:22;;;;;;;1.33;0.90;;;5.30;99.90;;;;;;5093427;28;20385;-82
2020/12/27 06:54:49;;;;;;;;;;;5.20;99.90;;;;;;5111691;28;20073;-83
2020/12/27 06:57:43;;;;;;;1.67;1.02;;;5.20;99.90;;;;;;5084351;28;20008;-82
2020/12/27 07:00:29;;;;;;;2.22;1.05;;;5.20;99.90;;;;;;5110680;28;20016;-83
2020/12/27 07:03:11;;;;;;;2.22;1.30;;;5.10;99.90;;;;;;5076215;28;20050;-83
2020/12/27 07:05:39;;;;;;;3.47;1.40;;;5.00;99.90;;;;;;5092884;28;20027;-82
2020/12/27 07:08:07;;;;;;;3.22;1.40;;;5.00;99.90;;;;;;5073281;28;20411;-82
2020/12/27 07:10:35;;;;;;;3.42;1.15;;;5.00;99.90;;;;;;5076747;28;20019;-82
2020/12/27 07:13:05;;;;;;;2.03;1.05;;;4.90;99.90;;;;;;5076178;28;20027;-80
2020/12/27 07:15:31;;;;;;;2.95;1.35;;;4.80;99.90;;;;;;5081806;28;20427;-83
2020/12/27 07:18:05;;;;;;;7.25;1.73;;;4.90;99.90;;;;;;5110882;28;20471;-81
2020/12/27 07:20:32;;;;;;;2.90;1.27;;;4.90;99.90;;;;;;5087145;28;20047;-81
2020/12/27 07:22:57;;;;;;;3.45;1.60;;;4.90;99.90;;;;;;5088153;28;20031;-81
2020/12/27 07:25:23;;;;;;;1.92;1.20;;;4.90;99.90;;;;;;5076935;28;20052;-81
2020/12/27 07:27:50;;;;;;;3.03;1.25;;;4.90;99.90;;;;;;5083466;28;20027;-81
2020/12/27 07:30:16;;;;;;;1.50;1.30;;;4.90;99.90;;;;;;5078605;28;20383;-79
2020/12/27 07:32:49;;;;;;;1.55;1.30;;;5.00;99.90;;;;;;5092462;28;20077;-79
2020/12/27 07:35:15;;;;;;;1.40;1.00;;;5.00;99.90;;;;;;5110780;28;20031;-81
2020/12/27 07:37:58;;;;;;;1.20;1.00;;;5.10;99.90;;;;;;5109473;28;20027;-81
2020/12/27 07:40:30;;;;;;;1.30;1.15;;;5.00;99.90;;;;;;5092728;28;20032;-80
2020/12/27 07:42:56;;;;;;;1.52;1.10;;;5.00;99.90;;;;;;5090478;28;20024;-80
2020/12/27 07:45:22;;;;;;;3.63;1.10;;;5.10;99.90;;;;;;5077007;28;20069;-81
2020/12/27 07:47:47;;;;;;;2.03;1.55;;;5.10;99.90;;;;;;5087080;28;20540;-81
2020/12/27 07:50:14;;;;;;;9.02;1.70;;;5.10;99.90;;;;;;5092302;28;20031;-81
2020/12/27 07:52:55;;;;;;;1.60;1.20;;;5.10;99.90;;;;;;5091578;28;20515;-81
2020/12/27 07:55:23;;;;;;;1.60;1.25;;;5.10;99.90;;;;;;5106551;28;20051;-81
2020/12/27 07:57:49;;;;;;;1.95;1.38;;;5.10;99.90;;;;;;5109600;28;20112;-81
2020/12/27 08:00:14;;;;;;;2.20;1.27;;;5.10;99.90;;;;;;5089262;28;20476;-82
2020/12/27 08:02:44;;;;;;;2.33;1.20;;;5.20;99.90;;;;;;5079954;28;20558;-81
2020/12/27 08:05:13;;;;;;;1.98;1.33;;;5.20;99.90;;;;;;5078457;28;20061;-80
2020/12/27 08:07:39;;;;;;;1.23;1.08;;;5.20;99.90;;;;;;5083014;28;20024;-81
2020/12/27 08:10:23;;;;;;;3.42;1.20;;;5.30;99.90;;;;;;5092182;28;20031;-80
2020/12/27 08:13:00;;;;;;;2.42;1.25;;;5.30;99.90;;;;;;5091021;28;20024;-80
2020/12/27 08:15:27;;;;;;;1.23;0.90;;;5.40;99.90;;;;;;5103867;28;20043;-81
2020/12/27 08:18:02;;;;;;;2.95;1.10;;;5.40;99.90;;;;;;5109151;28;20097;-81
2020/12/27 08:20:30;;;;;;;2.85;1.02;;;5.40;99.90;;;;;;5105379;28;20094;-81
2020/12/27 08:23:07;;;;;;;4.35;1.20;;;5.40;99.90;;;;;;5088074;28;20027;-80
2020/12/27 08:25:34;;;;;;;1.08;0.90;;;5.50;99.90;;;;;;5083776;28;20468;-83
2020/12/27 08:28:03;;;;;;;1.67;0.98;;;5.50;99.90;;;;;;5091312;28;20085;-82
2020/12/27 08:30:29;;;;;;;1.23;0.90;;;5.60;99.90;;;;;;5080734;28;20028;-82
2020/12/27 08:33:17;;;;;;;2.47;0.93;;;5.60;99.90;;;;;;5108947;28;20088;-82
2020/12/27 08:35:48;;;;;;;1.63;1.08;;;5.60;99.90;;;;;;5109334;28;20395;-82
2020/12/27 08:38:19;;;;;;;3.50;1.50;;;5.60;99.90;;;;;;5109484;28;20063;-82
2020/12/27 08:40:52;;;;;;;1.38;0.98;;;5.60;99.90;;;;;;5087313;28;20110;-82
2020/12/27 08:43:41;;;;;;;1.83;0.95;;;5.60;99.90;;;;;;5104929;28;20052;-81
2020/12/27 08:46:11;;;;;;;1.92;1.13;;;5.70;99.90;;;;;;5074664;28;20137;-82
2020/12/27 08:48:42;;;;;;;2.00;1.20;;;5.70;99.90;;;;;;5085464;28;20491;-81
2020/12/27 08:51:10;;;;;;;1.75;1.15;;;5.70;99.90;;;;;;5109680;28;20026;-82
2020/12/27 08:53:42;;;;;;;2.17;1.02;;;5.70;99.90;;;;;;5086390;28;20031;-82
2020/12/27 08:56:09;;;;;;;3.30;1.17;;;5.80;99.90;;;;;;5090475;28;20044;-80
2020/12/27 08:58:35;;;;;;;3.90;1.17;;;5.80;99.90;;;;;;5074874;28;20043;-80
2020/12/27 09:01:01;;;;;;;0.80;0.77;;;5.80;99.90;;;;;;5082170;28;20024;-82
2020/12/27 09:03:26;;;;;;;0.93;0.80;;;5.90;99.90;;;;;;5090384;28;20090;-82
2020/12/27 09:05:52;;;;;;;0.98;0.75;;;5.90;99.90;;;;;;5084149;28;20024;-82
2020/12/27 09:08:18;;;;;;;1.00;0.90;;;5.90;99.90;;;;;;5079172;28;20477;-82
2020/12/27 09:10:44;;;;;;;5.63;1.10;;;5.90;99.90;;;;;;5082542;28;20027;-80
2020/12/27 09:13:12;;;;;;;1.77;0.63;;;6.00;99.90;;;;;;5084449;28;20384;-80
2020/12/27 09:15:42;;;;;;;1.83;1.10;;;6.00;99.90;;;;;;5090068;28;20047;-82
2020/12/27 09:18:27;;;;;;;5.32;1.20;;;6.10;99.90;;;;;;5081200;28;20518;-82
2020/12/27 09:20:58;;;;;;;2.80;1.10;;;6.10;99.90;;;;;;5090421;28;20031;-80
2020/12/27 09:23:24;;;;;;;1.05;0.95;;;6.10;99.90;;;;;;5107660;28;20024;-80
2020/12/27 09:26:07;;;;;;;4.25;0.88;;;6.10;99.90;;;;;;5075559;28;20032;-82
2020/12/27 09:28:34;;;;;;;1.60;0.50;;;6.10;99.90;;;;;;5083930;28;20031;-82
2020/12/27 09:31:03;;;;;;;1.10;0.77;;;6.10;99.90;;;;;;5106414;28;20055;-79
2020/12/27 09:33:30;;;;;;;2.38;0.73;;;6.20;99.90;;;;;;5090204;28;20023;-80
2020/12/27 09:36:00;;;;;;;1.35;0.85;;;6.20;99.90;;;;;;5079245;28;20095;-81
2020/12/27 09:38:27;;;;;;;2.95;1.10;;;6.20;99.90;;;;;;5104817;28;20063;-82
2020/12/27 09:41:02;;;;;;;1.92;0.80;;;6.10;99.90;;;;;;5109072;28;20035;-80
2020/12/27 09:43:53;;;;;;;1.73;0.90;;;6.20;99.90;;;;;;5073575;27;1007441;-79
2020/12/27 09:46:57;;;;;;;1.38;0.80;;;6.20;99.90;;;;;;5086884;28;20081;-79
2020/12/27 09:49:32;;;;;;;0.90;0.70;;;6.20;99.90;;;;;;4985511;28;20093;-79
2020/12/27 09:52:11;;;;;;;4.82;0.88;;;6.20;99.90;;;;;;4969748;28;20093;-81
2020/12/27 09:54:37;;;;;;;2.53;0.95;;;6.20;99.90;;;;;;4984884;28;20030;-80
2020/12/27 09:57:13;;;;;;;1.08;0.80;;;6.30;99.90;;;;;;4985205;28;20042;-80
2020/12/27 09:59:40;;;;;;;4.53;1.00;;;6.30;99.90;;;;;;4969163;28;20045;-82
2020/12/27 10:02:06;;;;;;;2.30;0.88;;;6.20;99.90;;;;;;4991190;28;20045;-82
2020/12/27 10:04:32;;;;;;;1.98;0.80;;;6.30;99.90;;;;;;4986990;28;20038;-81
2020/12/27 10:06:58;;;;;;;1.35;0.98;;;6.30;99.90;;;;;;4984663;28;20049;-82
2020/12/27 10:09:24;;;;;;;1.83;1.05;;;6.30;99.90;;;;;;4994552;28;20130;-82
2020/12/27 10:11:49;;;;;;;2.10;1.20;;;6.30;99.90;;;;;;4995085;28;20422;-82
2020/12/27 10:14:16;;;;;;;1.25;0.80;;;6.30;99.90;;;;;;4984239;28;20037;-82
2020/12/27 10:16:42;;;;;;;1.05;0.95;;;6.30;99.90;;;;;;4981714;28;20041;-82
2020/12/27 10:19:07;;;;;;;1.08;0.90;;;6.30;99.90;;;;;;4984025;28;20121;-81
2020/12/27 10:21:33;;;;;;;1.65;1.02;;;6.30;99.90;;;;;;4985386;28;20145;-82
2020/12/27 10:23:59;;;;;;;2.17;0.90;;;6.20;99.90;;;;;;5062435;28;20040;-82
2020/12/27 10:26:24;;;;;;;2.53;1.02;;;6.40;99.90;;;;;;5068189;28;20024;-80
2020/12/27 10:28:50;;;;;;;5.63;1.60;;;6.30;99.90;;;;;;5076453;28;20035;-80
2020/12/27 10:31:16;;;;;;;4.45;2.33;;;6.00;99.90;;;;;;5085821;28;20095;-82
2020/12/27 10:33:41;;;;;;;5.88;2.38;;;5.80;99.90;;;;;;5091604;28;20074;-82
2020/12/27 10:36:07;;;;;;;3.78;2.35;;;5.60;99.90;;;;;;5081517;28;20085;-82
2020/12/27 10:38:32;;;;;;;7.55;2.30;;;5.50;99.90;;;;;;5080221;28;20446;-82
2020/12/27 10:41:00;;;;;;;4.20;2.60;;;5.40;99.90;;;;;;5067634;28;20046;-82
2020/12/27 10:43:26;;;;;;;5.30;2.33;;;5.40;99.90;;;;;;5085189;28;20044;-82
2020/12/27 10:46:03;;;;;;;3.80;2.22;;;5.30;99.90;;;;;;5067850;28;20051;-82
2020/12/27 10:48:35;;;;;;;5.60;2.42;;;5.30;99.90;;;;;;5067434;28;20031;-81
2020/12/27 10:51:02;;;;;;;6.35;2.80;;;5.20;99.90;;;;;;5067048;28;20416;-80
2020/12/27 10:53:28;;;;;;;4.95;3.35;;;5.20;99.90;;;;;;5063234;28;20051;-80
2020/12/27 10:55:53;;;;;;;4.00;2.33;;;5.10;99.90;;;;;;5054301;28;20504;-80
2020/12/27 10:58:19;;;;;;;4.70;2.75;;;5.10;99.90;;;;;;5071623;28;20101;-80
2020/12/27 11:00:45;;;;;;;2.92;2.10;;;5.00;99.90;;;;;;5062077;28;20469;-81
2020/12/27 11:03:13;;;;;;;4.43;2.83;;;5.10;99.90;;;;;;5069325;28;20046;-81
2020/12/27 11:05:39;;;;;;;2.75;2.00;;;5.00;99.90;;;;;;5078767;28;20024;-82
2020/12/27 11:08:05;;;;;;;3.78;2.50;;;5.00;99.90;;;;;;5069390;28;20032;-82
2020/12/27 11:10:31;;;;;;;6.82;2.13;;;5.10;99.90;;;;;;5055611;28;20485;-82
2020/12/27 11:12:57;;;;;;;5.35;2.50;;;5.20;99.90;;;;;;5071609;28;20031;-82
2020/12/27 11:15:22;;;;;;;4.13;2.55;;;5.10;99.90;;;;;;5073308;28;20043;-80
2020/12/27 11:17:48;;;;;;;4.18;2.28;;;5.20;99.90;;;;;;5052486;28;20431;-80
2020/12/27 11:20:14;;;;;;;8.43;2.72;;;5.10;99.90;;;;;;5053809;28;20469;-81
2020/12/27 11:22:43;;;;;;;3.95;2.20;;;5.20;99.90;;;;;;5053682;28;20392;-82
2020/12/27 11:25:10;;;;;;;2.97;1.85;;;5.10;99.90;;;;;;5054478;28;20059;-82
2020/12/27 11:27:35;;;;;;;2.75;2.08;;;5.10;99.90;;;;;;5063677;28;20035;-82
2020/12/27 11:30:03;;;;;;;6.60;2.53;;;5.10;99.90;;;;;;5059028;28;20384;-81
2020/12/27 11:32:28;;;;;;;4.65;2.58;;;5.10;99.90;;;;;;5069475;28;20024;-82
2020/12/27 11:34:54;;;;;;;3.30;2.25;;;5.10;99.90;;;;;;5054779;28;20093;-82
2020/12/27 11:37:20;;;;;;;2.25;1.80;;;5.10;99.90;;;;;;5079394;28;20115;-82
2020/12/27 11:39:45;;;;;;;5.60;2.05;;;5.10;99.90;;;;;;5054125;28;20115;-82
2020/12/27 11:42:11;;;;;;;5.28;2.85;;;5.10;99.90;;;;;;5070951;28;20043;-82
2020/12/27 11:44:37;;;;;;;2.30;1.65;;;5.00;99.90;;;;;;5069898;28;20032;-80
2020/12/27 11:47:04;;;;;;;3.55;2.20;;;5.00;99.90;;;;;;5052683;28;20069;-80
2020/12/27 11:49:29;;;;;;;3.70;2.80;;;4.90;99.90;;;;;;5058132;28;20032;-80
2020/12/27 11:51:55;;;;;;;5.53;2.92;;;4.90;99.90;;;;;;5071883;28;20097;-80
2020/12/27 11:54:21;;;;;;;3.45;2.50;;;4.90;99.90;;;;;;5058801;28;20042;-80
2020/12/27 11:56:46;;;;;;;3.67;2.35;;;4.90;99.90;;;;;;5070456;28;20028;-79
2020/12/27 11:59:12;;;;;;;7.10;2.70;;;4.90;99.90;;;;;;5052293;28;20032;-80
2020/12/27 12:01:38;;;;;;;3.33;2.35;;;4.80;99.90;;;;;;5053898;28;20481;-82
2020/12/27 12:04:04;;;;;;;5.28;3.13;;;4.80;99.90;;;;;;5053107;28;20124;-81
2020/12/27 12:06:30;;;;;;;5.88;2.53;;;4.70;99.90;;;;;;5069684;28;20027;-82
2020/12/27 12:08:56;;;;;;;9.35;3.22;;;4.70;99.90;;;;;;5053863;28;20020;-82
2020/12/27 12:11:22;;;;;;;17.10;2.85;;;4.70;99.90;;;;;;5071199;28;20016;-80
2020/12/27 12:13:47;;;;;;;5.28;2.92;;;4.70;99.90;;;;;;5080996;28;20190;-80
2020/12/27 12:16:20;;;;;;;6.30;2.67;;;4.70;99.90;;;;;;5052502;28;20384;-82
2020/12/27 12:18:46;;;;;;;9.25;3.72;;;4.70;99.90;;;;;;5052331;28;20029;-82
2020/12/27 12:21:12;;;;;;;4.15;2.53;;;4.60;99.90;;;;;;5060962;28;20097;-82
2020/12/27 12:23:37;;;;;;;6.32;3.35;;;4.60;99.90;;;;;;5053487;28;20041;-82
2020/12/27 12:26:03;;;;;;;4.60;2.85;;;4.60;99.90;;;;;;5061118;28;20017;-80
2020/12/27 12:28:29;;;;;;;8.90;3.50;;;4.60;99.90;;;;;;5066098;28;20032;-80
2020/12/27 12:30:55;;;;;;;10.07;2.97;;;4.60;99.90;;;;;;5069362;28;20043;-83
2020/12/27 12:33:20;;;;;;;5.25;2.80;;;4.60;99.90;;;;;;5056629;28;20025;-82
2020/12/27 12:35:46;;;;;;;5.78;3.22;;;4.60;99.90;;;;;;5055747;28;20119;-80
2020/12/27 12:38:12;;;;;;;6.57;2.65;;;4.50;99.90;;;;;;5065932;28;20027;-80
2020/12/27 12:40:38;;;;;;;5.57;3.47;;;4.50;99.90;;;;;;5057517;28;20032;-80
2020/12/27 12:43:04;;;;;;;6.07;3.17;;;4.50;99.90;;;;;;5053102;28;20571;-80
2020/12/27 12:45:30;;;;;;;7.05;3.85;;;4.50;99.90;;;;;;5053385;28;20032;-82
2020/12/27 12:47:56;;;;;;;7.45;3.28;;;4.40;99.90;;;;;;5060624;28;20113;-82
2020/12/27 12:50:22;;;;;;;4.28;3.15;;;4.40;99.90;;;;;;5058361;28;20052;-82
2020/12/27 12:52:48;;;;;;;8.63;3.65;;;4.40;99.90;;;;;;5071200;28;20037;-82
2020/12/27 12:55:13;;;;;;;6.38;2.97;;;4.40;99.90;;;;;;5067761;28;20384;-81
2020/12/27 12:57:39;;;;;;;4.75;2.97;;;4.40;99.90;;;;;;5081022;28;20102;-81
2020/12/27 13:00:05;;;;;;;4.35;2.67;;;4.40;99.90;;;;;;5067946;28;20035;-82
2020/12/27 13:02:31;;;;;;;6.35;2.72;;;4.40;99.90;;;;;;5057842;28;20040;-82